sensor_id;sensor_type;location;lat;lon;timestamp;noise_LAeq;noise_LA_min;noise_LA_max;noise_LA01;noise_LA95
70077;Laerm;57448;51.490;5.436;2023-12-20T00:00:11;40.71;36.70;46.92;;
70077;Laerm;57448;51.490;5.436;2023-12-20T00:02:37;41.61;36.74;49.63;;
70077;Laerm;57448;51.490;5.436;2023-12-20T00:05:02;43.70;39.03;57.08;;
70077;Laerm;57448;51.490;5.436;2023-12-20T00:07:28;42.21;37.85;47.44;;
70077;Laerm;57448;51.490;5.436;2023-12-20T00:09:53;42.70;39.35;50.84;;
70077;Laerm;57448;51.490;5.436;2023-12-20T00:12:18;42.52;38.50;48.71;;
70077;Laerm;57448;51.490;5.436;2023-12-20T00:14:44;43.63;39.56;49.96;;
70077;Laerm;57448;51.490;5.436;2023-12-20T00:17:09;42.89;39.08;49.96;;
70077;Laerm;57448;51.490;5.436;2023-12-20T00:19:34;44.04;40.17;48.77;;
70077;Laerm;57448;51.490;5.436;2023-12-20T00:22:00;42.79;39.46;52.25;;
70077;Laerm;57448;51.490;5.436;2023-12-20T00:24:25;43.05;40.41;50.47;;
70077;Laerm;57448;51.490;5.436;2023-12-20T00:26:50;43.54;40.00;49.68;;
70077;Laerm;57448;51.490;5.436;2023-12-20T00:29:16;42.18;36.92;48.95;;
70077;Laerm;57448;51.490;5.436;2023-12-20T00:31:41;43.03;39.68;49.20;;
70077;Laerm;57448;51.490;5.436;2023-12-20T00:34:06;43.76;39.59;49.39;;
70077;Laerm;57448;51.490;5.436;2023-12-20T00:36:32;41.60;37.97;48.25;;
70077;Laerm;57448;51.490;5.436;2023-12-20T00:38:57;41.64;37.54;49.00;;
70077;Laerm;57448;51.490;5.436;2023-12-20T00:41:22;43.32;38.39;52.15;;
70077;Laerm;57448;51.490;5.436;2023-12-20T00:43:48;42.13;37.60;46.72;;
70077;Laerm;57448;51.490;5.436;2023-12-20T00:46:14;43.18;37.85;51.52;;
70077;Laerm;57448;51.490;5.436;2023-12-20T00:48:39;40.20;35.87;46.86;;
70077;Laerm;57448;51.490;5.436;2023-12-20T00:51:07;40.70;35.26;50.78;;
70077;Laerm;57448;51.490;5.436;2023-12-20T00:53:32;42.12;37.30;48.93;;
70077;Laerm;57448;51.490;5.436;2023-12-20T00:55:58;42.23;36.91;48.70;;
70077;Laerm;57448;51.490;5.436;2023-12-20T00:58:23;42.23;38.37;47.78;;
70077;Laerm;57448;51.490;5.436;2023-12-20T01:00:49;42.82;37.69;52.75;;
70077;Laerm;57448;51.490;5.436;2023-12-20T01:03:14;43.69;39.77;51.88;;
70077;Laerm;57448;51.490;5.436;2023-12-20T01:05:40;41.65;38.36;48.75;;
70077;Laerm;57448;51.490;5.436;2023-12-20T01:08:05;42.99;38.52;48.75;;
70077;Laerm;57448;51.490;5.436;2023-12-20T01:10:31;43.23;39.57;47.51;;
70077;Laerm;57448;51.490;5.436;2023-12-20T01:12:57;42.69;37.93;50.13;;
70077;Laerm;57448;51.490;5.436;2023-12-20T01:15:22;40.87;36.59;49.94;;
70077;Laerm;57448;51.490;5.436;2023-12-20T01:17:48;43.34;39.43;49.93;;
70077;Laerm;57448;51.490;5.436;2023-12-20T01:20:14;41.44;37.28;46.48;;
70077;Laerm;57448;51.490;5.436;2023-12-20T01:22:39;41.09;37.46;47.17;;
70077;Laerm;57448;51.490;5.436;2023-12-20T01:25:05;40.69;36.72;45.42;;
70077;Laerm;57448;51.490;5.436;2023-12-20T01:27:30;41.24;37.49;46.66;;
70077;Laerm;57448;51.490;5.436;2023-12-20T01:29:56;39.58;36.35;44.58;;
70077;Laerm;57448;51.490;5.436;2023-12-20T01:32:21;41.22;36.77;51.35;;
70077;Laerm;57448;51.490;5.436;2023-12-20T01:34:47;41.58;38.66;46.38;;
70077;Laerm;57448;51.490;5.436;2023-12-20T01:37:13;40.97;37.92;48.02;;
70077;Laerm;57448;51.490;5.436;2023-12-20T01:39:38;41.77;37.38;49.53;;
70077;Laerm;57448;51.490;5.436;2023-12-20T01:42:04;42.46;38.84;48.72;;
70077;Laerm;57448;51.490;5.436;2023-12-20T01:44:29;41.76;38.46;47.24;;
70077;Laerm;57448;51.490;5.436;2023-12-20T01:46:55;41.10;35.25;49.59;;
70077;Laerm;57448;51.490;5.436;2023-12-20T01:49:21;39.38;34.75;48.86;;
70077;Laerm;57448;51.490;5.436;2023-12-20T01:51:47;42.97;38.29;49.55;;
70077;Laerm;57448;51.490;5.436;2023-12-20T01:54:12;41.84;37.78;45.99;;
70077;Laerm;57448;51.490;5.436;2023-12-20T01:56:38;42.27;37.69;47.87;;
70077;Laerm;57448;51.490;5.436;2023-12-20T01:59:04;40.75;37.44;46.08;;
70077;Laerm;57448;51.490;5.436;2023-12-20T02:01:29;41.38;39.00;46.10;;
70077;Laerm;57448;51.490;5.436;2023-12-20T02:03:55;41.48;37.45;48.92;;
70077;Laerm;57448;51.490;5.436;2023-12-20T02:06:21;42.71;38.28;49.13;;
70077;Laerm;57448;51.490;5.436;2023-12-20T02:08:47;40.12;34.48;45.49;;
70077;Laerm;57448;51.490;5.436;2023-12-20T02:11:13;40.14;34.75;50.80;;
70077;Laerm;57448;51.490;5.436;2023-12-20T02:13:38;41.28;37.98;46.88;;
70077;Laerm;57448;51.490;5.436;2023-12-20T02:16:04;42.10;37.06;50.20;;
70077;Laerm;57448;51.490;5.436;2023-12-20T02:18:29;40.46;36.38;47.62;;
70077;Laerm;57448;51.490;5.436;2023-12-20T02:20:54;42.29;37.48;50.36;;
70077;Laerm;57448;51.490;5.436;2023-12-20T02:23:20;39.99;36.29;45.69;;
70077;Laerm;57448;51.490;5.436;2023-12-20T02:25:46;41.37;36.84;53.23;;
70077;Laerm;57448;51.490;5.436;2023-12-20T02:28:11;40.58;36.99;46.38;;
70077;Laerm;57448;51.490;5.436;2023-12-20T02:30:37;40.94;37.64;48.80;;
70077;Laerm;57448;51.490;5.436;2023-12-20T02:33:02;40.98;36.61;47.93;;
70077;Laerm;57448;51.490;5.436;2023-12-20T02:35:28;41.89;38.49;48.97;;
70077;Laerm;57448;51.490;5.436;2023-12-20T02:37:54;42.95;38.27;52.04;;
70077;Laerm;57448;51.490;5.436;2023-12-20T02:40:19;43.52;38.82;51.38;;
70077;Laerm;57448;51.490;5.436;2023-12-20T02:42:44;43.13;38.58;53.08;;
70077;Laerm;57448;51.490;5.436;2023-12-20T02:45:10;41.20;38.24;44.95;;
70077;Laerm;57448;51.490;5.436;2023-12-20T02:47:35;41.97;38.57;48.16;;
70077;Laerm;57448;51.490;5.436;2023-12-20T02:50:00;44.13;40.11;51.10;;
70077;Laerm;57448;51.490;5.436;2023-12-20T02:52:27;41.05;36.81;45.66;;
70077;Laerm;57448;51.490;5.436;2023-12-20T02:54:52;42.40;37.72;51.57;;
70077;Laerm;57448;51.490;5.436;2023-12-20T02:57:18;43.17;38.45;48.08;;
70077;Laerm;57448;51.490;5.436;2023-12-20T02:59:43;43.73;38.79;48.66;;
70077;Laerm;57448;51.490;5.436;2023-12-20T03:02:08;43.22;39.53;50.30;;
70077;Laerm;57448;51.490;5.436;2023-12-20T03:04:34;44.37;40.17;48.98;;
70077;Laerm;57448;51.490;5.436;2023-12-20T03:06:59;44.02;40.05;50.39;;
70077;Laerm;57448;51.490;5.436;2023-12-20T03:09:24;41.59;37.13;47.14;;
70077;Laerm;57448;51.490;5.436;2023-12-20T03:11:50;43.05;38.24;51.58;;
70077;Laerm;57448;51.490;5.436;2023-12-20T03:14:15;41.99;38.95;49.19;;
70077;Laerm;57448;51.490;5.436;2023-12-20T03:16:40;43.28;38.90;47.35;;
70077;Laerm;57448;51.490;5.436;2023-12-20T03:19:06;43.47;40.90;49.65;;
70077;Laerm;57448;51.490;5.436;2023-12-20T03:21:31;43.50;40.66;50.77;;
70077;Laerm;57448;51.490;5.436;2023-12-20T03:23:57;43.47;40.28;49.13;;
70077;Laerm;57448;51.490;5.436;2023-12-20T03:26:22;42.85;40.77;46.06;;
70077;Laerm;57448;51.490;5.436;2023-12-20T03:28:48;44.12;40.74;48.57;;
70077;Laerm;57448;51.490;5.436;2023-12-20T03:31:14;44.65;41.02;50.42;;
70077;Laerm;57448;51.490;5.436;2023-12-20T03:33:39;44.18;40.93;48.98;;
70077;Laerm;57448;51.490;5.436;2023-12-20T03:36:04;44.88;41.13;48.96;;
70077;Laerm;57448;51.490;5.436;2023-12-20T03:38:30;45.22;42.07;50.53;;
70077;Laerm;57448;51.490;5.436;2023-12-20T03:40:55;45.44;41.73;49.67;;
70077;Laerm;57448;51.490;5.436;2023-12-20T03:43:21;45.39;42.38;50.28;;
70077;Laerm;57448;51.490;5.436;2023-12-20T03:45:46;45.77;42.74;53.09;;
70077;Laerm;57448;51.490;5.436;2023-12-20T03:48:11;45.61;42.36;50.90;;
70077;Laerm;57448;51.490;5.436;2023-12-20T03:50:37;44.87;41.66;49.76;;
70077;Laerm;57448;51.490;5.436;2023-12-20T03:53:02;44.53;41.61;49.07;;
70077;Laerm;57448;51.490;5.436;2023-12-20T03:55:28;46.47;43.76;52.31;;
70077;Laerm;57448;51.490;5.436;2023-12-20T03:57:54;45.77;43.09;49.94;;
70077;Laerm;57448;51.490;5.436;2023-12-20T04:00:19;44.98;42.28;48.71;;
70077;Laerm;57448;51.490;5.436;2023-12-20T04:02:45;46.33;43.17;50.72;;
70077;Laerm;57448;51.490;5.436;2023-12-20T04:05:10;46.12;41.82;52.83;;
70077;Laerm;57448;51.490;5.436;2023-12-20T04:07:36;46.81;43.40;53.17;;
70077;Laerm;57448;51.490;5.436;2023-12-20T04:10:01;47.56;44.52;54.13;;
70077;Laerm;57448;51.490;5.436;2023-12-20T04:12:28;46.53;43.77;50.98;;
70077;Laerm;57448;51.490;5.436;2023-12-20T04:14:54;46.75;43.87;50.60;;
70077;Laerm;57448;51.490;5.436;2023-12-20T04:17:19;46.24;43.34;49.84;;
70077;Laerm;57448;51.490;5.436;2023-12-20T04:19:45;47.46;44.58;52.02;;
70077;Laerm;57448;51.490;5.436;2023-12-20T04:22:10;46.74;43.44;52.93;;
70077;Laerm;57448;51.490;5.436;2023-12-20T04:24:35;46.43;43.20;50.18;;
70077;Laerm;57448;51.490;5.436;2023-12-20T04:27:01;47.40;44.57;54.46;;
70077;Laerm;57448;51.490;5.436;2023-12-20T04:29:26;47.73;45.03;52.14;;
70077;Laerm;57448;51.490;5.436;2023-12-20T04:31:52;47.04;44.49;51.35;;
70077;Laerm;57448;51.490;5.436;2023-12-20T04:34:17;48.57;45.26;52.68;;
70077;Laerm;57448;51.490;5.436;2023-12-20T04:36:43;48.09;45.48;51.54;;
70077;Laerm;57448;51.490;5.436;2023-12-20T04:39:08;48.52;46.24;54.00;;
70077;Laerm;57448;51.490;5.436;2023-12-20T04:41:33;47.86;45.93;52.62;;
70077;Laerm;57448;51.490;5.436;2023-12-20T04:43:59;48.27;45.57;50.78;;
70077;Laerm;57448;51.490;5.436;2023-12-20T04:46:25;48.55;46.36;52.67;;
70077;Laerm;57448;51.490;5.436;2023-12-20T04:48:50;49.66;46.65;55.64;;
70077;Laerm;57448;51.490;5.436;2023-12-20T04:51:16;49.44;46.83;54.84;;
70077;Laerm;57448;51.490;5.436;2023-12-20T04:53:41;49.18;46.34;56.99;;
70077;Laerm;57448;51.490;5.436;2023-12-20T04:56:07;48.09;45.51;52.82;;
70077;Laerm;57448;51.490;5.436;2023-12-20T04:58:32;47.87;45.24;51.32;;
70077;Laerm;57448;51.490;5.436;2023-12-20T05:00:57;49.10;46.00;54.91;;
70077;Laerm;57448;51.490;5.436;2023-12-20T05:03:23;49.38;46.38;53.00;;
70077;Laerm;57448;51.490;5.436;2023-12-20T05:05:48;49.73;47.08;53.93;;
70077;Laerm;57448;51.490;5.436;2023-12-20T05:08:14;49.57;46.88;56.83;;
70077;Laerm;57448;51.490;5.436;2023-12-20T05:10:39;48.54;46.45;51.56;;
70077;Laerm;57448;51.490;5.436;2023-12-20T05:13:05;49.47;46.50;52.86;;
70077;Laerm;57448;51.490;5.436;2023-12-20T05:15:31;49.67;47.27;52.48;;
70077;Laerm;57448;51.490;5.436;2023-12-20T05:17:56;50.36;47.95;53.51;;
70077;Laerm;57448;51.490;5.436;2023-12-20T05:20:21;49.67;47.80;52.91;;
70077;Laerm;57448;51.490;5.436;2023-12-20T05:22:47;49.91;47.26;54.06;;
70077;Laerm;57448;51.490;5.436;2023-12-20T05:25:13;49.35;46.52;54.51;;
70077;Laerm;57448;51.490;5.436;2023-12-20T05:27:38;49.42;47.27;52.94;;
70077;Laerm;57448;51.490;5.436;2023-12-20T05:30:04;49.09;47.04;53.24;;
70077;Laerm;57448;51.490;5.436;2023-12-20T05:32:29;48.83;46.64;53.79;;
70077;Laerm;57448;51.490;5.436;2023-12-20T05:34:55;48.91;47.14;50.98;;
70077;Laerm;57448;51.490;5.436;2023-12-20T05:37:20;49.67;47.47;53.16;;
70077;Laerm;57448;51.490;5.436;2023-12-20T05:39:45;50.18;47.63;53.39;;
70077;Laerm;57448;51.490;5.436;2023-12-20T05:42:11;50.31;47.88;53.60;;
70077;Laerm;57448;51.490;5.436;2023-12-20T05:44:36;50.72;47.79;54.60;;
70077;Laerm;57448;51.490;5.436;2023-12-20T05:47:02;50.83;48.09;54.60;;
70077;Laerm;57448;51.490;5.436;2023-12-20T05:49:27;51.09;48.91;53.83;;
70077;Laerm;57448;51.490;5.436;2023-12-20T05:51:53;50.15;48.05;52.42;;
70077;Laerm;57448;51.490;5.436;2023-12-20T05:54:19;50.68;48.93;54.27;;
70077;Laerm;57448;51.490;5.436;2023-12-20T05:56:44;50.29;47.57;53.31;;
70077;Laerm;57448;51.490;5.436;2023-12-20T05:59:09;50.70;48.16;54.50;;
70077;Laerm;57448;51.490;5.436;2023-12-20T06:01:35;49.93;47.76;53.22;;
70077;Laerm;57448;51.490;5.436;2023-12-20T06:04:00;50.48;47.94;58.80;;
70077;Laerm;57448;51.490;5.436;2023-12-20T06:06:25;50.43;48.77;53.18;;
70077;Laerm;57448;51.490;5.436;2023-12-20T06:08:51;50.34;48.31;52.86;;
70077;Laerm;57448;51.490;5.436;2023-12-20T06:11:16;50.23;48.54;52.85;;
70077;Laerm;57448;51.490;5.436;2023-12-20T06:13:41;51.42;49.69;54.86;;
70077;Laerm;57448;51.490;5.436;2023-12-20T06:16:07;51.82;48.90;56.90;;
70077;Laerm;57448;51.490;5.436;2023-12-20T06:18:32;51.57;49.50;53.90;;
70077;Laerm;57448;51.490;5.436;2023-12-20T06:20:58;51.92;49.06;55.21;;
70077;Laerm;57448;51.490;5.436;2023-12-20T06:23:23;51.68;49.83;54.59;;
70077;Laerm;57448;51.490;5.436;2023-12-20T06:25:48;51.88;49.61;55.70;;
70077;Laerm;57448;51.490;5.436;2023-12-20T06:28:14;51.89;49.44;56.37;;
70077;Laerm;57448;51.490;5.436;2023-12-20T06:30:40;52.24;49.76;55.60;;
70077;Laerm;57448;51.490;5.436;2023-12-20T06:33:05;52.17;49.24;56.67;;
70077;Laerm;57448;51.490;5.436;2023-12-20T06:35:31;51.77;49.94;54.09;;
70077;Laerm;57448;51.490;5.436;2023-12-20T06:37:57;52.34;50.03;54.80;;
70077;Laerm;57448;51.490;5.436;2023-12-20T06:40:22;52.56;50.35;55.16;;
70077;Laerm;57448;51.490;5.436;2023-12-20T06:42:47;52.28;50.01;54.56;;
70077;Laerm;57448;51.490;5.436;2023-12-20T06:45:13;52.54;50.25;55.20;;
70077;Laerm;57448;51.490;5.436;2023-12-20T06:47:38;52.43;50.49;54.74;;
70077;Laerm;57448;51.490;5.436;2023-12-20T06:50:04;51.88;48.89;55.30;;
70077;Laerm;57448;51.490;5.436;2023-12-20T06:52:29;52.37;49.40;56.08;;
70077;Laerm;57448;51.490;5.436;2023-12-20T06:54:55;51.94;49.54;56.39;;
70077;Laerm;57448;51.490;5.436;2023-12-20T06:57:20;51.58;49.00;56.24;;
70077;Laerm;57448;51.490;5.436;2023-12-20T06:59:45;51.72;49.71;58.91;;
70077;Laerm;57448;51.490;5.436;2023-12-20T07:02:11;52.02;50.13;57.93;;
70077;Laerm;57448;51.490;5.436;2023-12-20T07:04:39;51.51;49.29;54.94;;
70077;Laerm;57448;51.490;5.436;2023-12-20T07:07:05;51.80;48.92;56.06;;
70077;Laerm;57448;51.490;5.436;2023-12-20T07:09:30;54.65;49.84;64.40;;
70077;Laerm;57448;51.490;5.436;2023-12-20T07:11:55;55.94;50.35;68.83;;
70077;Laerm;57448;51.490;5.436;2023-12-20T07:14:21;53.38;49.93;61.73;;
70077;Laerm;57448;51.490;5.436;2023-12-20T07:16:46;52.75;50.31;61.02;;
70077;Laerm;57448;51.490;5.436;2023-12-20T07:19:12;52.94;50.44;56.40;;
70077;Laerm;57448;51.490;5.436;2023-12-20T07:21:37;52.25;49.72;55.23;;
70077;Laerm;57448;51.490;5.436;2023-12-20T07:24:03;52.66;50.79;55.79;;
70077;Laerm;57448;51.490;5.436;2023-12-20T07:26:28;52.67;50.20;55.25;;
70077;Laerm;57448;51.490;5.436;2023-12-20T07:28:53;52.92;50.84;58.52;;
70077;Laerm;57448;51.490;5.436;2023-12-20T07:31:19;52.81;50.41;59.70;;
70077;Laerm;57448;51.490;5.436;2023-12-20T07:33:44;53.25;50.44;60.01;;
70077;Laerm;57448;51.490;5.436;2023-12-20T07:36:09;52.79;49.94;60.08;;
70077;Laerm;57448;51.490;5.436;2023-12-20T07:38:35;53.34;50.94;67.01;;
70077;Laerm;57448;51.490;5.436;2023-12-20T07:41:00;55.60;51.01;64.79;;
70077;Laerm;57448;51.490;5.436;2023-12-20T07:43:25;53.30;50.89;61.08;;
70077;Laerm;57448;51.490;5.436;2023-12-20T07:45:51;52.89;50.30;55.97;;
70077;Laerm;57448;51.490;5.436;2023-12-20T07:48:16;55.16;51.01;63.94;;
70077;Laerm;57448;51.490;5.436;2023-12-20T07:50:41;55.47;50.29;66.48;;
70077;Laerm;57448;51.490;5.436;2023-12-20T07:53:07;52.51;50.71;58.09;;
70077;Laerm;57448;51.490;5.436;2023-12-20T07:55:32;53.82;50.16;64.14;;
70077;Laerm;57448;51.490;5.436;2023-12-20T07:57:59;54.85;50.08;66.24;;
70077;Laerm;57448;51.490;5.436;2023-12-20T08:00:24;52.55;50.26;62.13;;
70077;Laerm;57448;51.490;5.436;2023-12-20T08:02:49;52.05;49.57;68.82;;
70077;Laerm;57448;51.490;5.436;2023-12-20T08:05:15;52.02;49.40;57.33;;
70077;Laerm;57448;51.490;5.436;2023-12-20T08:07:40;51.43;49.03;55.31;;
70077;Laerm;57448;51.490;5.436;2023-12-20T08:10:05;51.46;48.84;56.79;;
70077;Laerm;57448;51.490;5.436;2023-12-20T08:12:31;52.35;49.78;56.03;;
70077;Laerm;57448;51.490;5.436;2023-12-20T08:14:56;51.73;49.07;55.72;;
70077;Laerm;57448;51.490;5.436;2023-12-20T08:17:22;51.39;49.49;54.12;;
70077;Laerm;57448;51.490;5.436;2023-12-20T08:19:48;55.14;49.27;66.12;;
70077;Laerm;57448;51.490;5.436;2023-12-20T08:22:13;52.10;49.88;56.21;;
70077;Laerm;57448;51.490;5.436;2023-12-20T08:24:39;52.09;49.86;57.41;;
70077;Laerm;57448;51.490;5.436;2023-12-20T08:27:04;51.36;49.22;55.51;;
70077;Laerm;57448;51.490;5.436;2023-12-20T08:29:29;52.51;49.14;70.07;;
70077;Laerm;57448;51.490;5.436;2023-12-20T08:31:55;51.62;49.13;55.39;;
70077;Laerm;57448;51.490;5.436;2023-12-20T08:34:20;54.60;49.47;70.14;;
70077;Laerm;57448;51.490;5.436;2023-12-20T08:36:46;51.56;48.88;55.02;;
70077;Laerm;57448;51.490;5.436;2023-12-20T08:39:11;51.81;48.99;54.97;;
70077;Laerm;57448;51.490;5.436;2023-12-20T08:41:37;54.61;49.47;64.49;;
70077;Laerm;57448;51.490;5.436;2023-12-20T08:44:02;50.87;48.84;53.40;;
70077;Laerm;57448;51.490;5.436;2023-12-20T08:46:28;50.67;48.20;59.63;;
70077;Laerm;57448;51.490;5.436;2023-12-20T08:48:53;50.80;48.66;55.25;;
70077;Laerm;57448;51.490;5.436;2023-12-20T08:51:18;50.82;47.97;56.87;;
70077;Laerm;57448;51.490;5.436;2023-12-20T08:53:44;50.73;48.05;55.79;;
70077;Laerm;57448;51.490;5.436;2023-12-20T08:56:10;50.49;48.46;53.60;;
70077;Laerm;57448;51.490;5.436;2023-12-20T08:58:35;50.75;47.92;53.61;;
70077;Laerm;57448;51.490;5.436;2023-12-20T09:01:01;52.11;49.46;58.07;;
70077;Laerm;57448;51.490;5.436;2023-12-20T09:03:26;51.68;48.82;61.80;;
70077;Laerm;57448;51.490;5.436;2023-12-20T09:05:51;50.92;48.78;59.35;;
70077;Laerm;57448;51.490;5.436;2023-12-20T09:08:17;53.13;48.88;71.80;;
70077;Laerm;57448;51.490;5.436;2023-12-20T09:10:42;56.21;50.28;69.83;;
70077;Laerm;57448;51.490;5.436;2023-12-20T09:13:07;51.77;49.34;57.24;;
70077;Laerm;57448;51.490;5.436;2023-12-20T09:15:33;51.56;49.34;58.73;;
70077;Laerm;57448;51.490;5.436;2023-12-20T09:17:59;51.43;48.32;54.32;;
70077;Laerm;57448;51.490;5.436;2023-12-20T09:20:24;51.62;48.69;68.35;;
70077;Laerm;57448;51.490;5.436;2023-12-20T09:22:50;51.58;48.45;63.83;;
70077;Laerm;57448;51.490;5.436;2023-12-20T09:25:15;54.24;48.53;64.42;;
70077;Laerm;57448;51.490;5.436;2023-12-20T09:27:42;55.81;48.22;70.36;;
70077;Laerm;57448;51.490;5.436;2023-12-20T09:30:08;52.00;49.55;54.74;;
70077;Laerm;57448;51.490;5.436;2023-12-20T09:32:33;52.33;48.91;58.31;;
70077;Laerm;57448;51.490;5.436;2023-12-20T09:34:58;51.05;48.77;54.40;;
70077;Laerm;57448;51.490;5.436;2023-12-20T09:37:26;52.13;49.33;56.21;;
70077;Laerm;57448;51.490;5.436;2023-12-20T09:39:51;51.24;48.95;54.52;;
70077;Laerm;57448;51.490;5.436;2023-12-20T09:42:17;55.56;48.89;66.70;;
70077;Laerm;57448;51.490;5.436;2023-12-20T09:44:46;51.60;49.14;62.09;;
70077;Laerm;57448;51.490;5.436;2023-12-20T09:47:12;51.12;48.58;59.81;;
70077;Laerm;57448;51.490;5.436;2023-12-20T09:49:38;50.90;48.24;55.35;;
70077;Laerm;57448;51.490;5.436;2023-12-20T09:52:03;51.27;48.49;55.49;;
70077;Laerm;57448;51.490;5.436;2023-12-20T09:54:30;51.11;48.53;56.30;;
70077;Laerm;57448;51.490;5.436;2023-12-20T09:56:55;50.63;48.09;54.43;;
70077;Laerm;57448;51.490;5.436;2023-12-20T09:59:21;51.18;48.94;54.82;;
70077;Laerm;57448;51.490;5.436;2023-12-20T10:01:46;51.44;48.92;56.17;;
70077;Laerm;57448;51.490;5.436;2023-12-20T10:04:12;51.78;49.31;54.53;;
70077;Laerm;57448;51.490;5.436;2023-12-20T10:06:39;51.17;49.01;55.65;;
70077;Laerm;57448;51.490;5.436;2023-12-20T10:09:04;51.60;49.08;54.88;;
70077;Laerm;57448;51.490;5.436;2023-12-20T10:11:30;51.46;49.06;54.48;;
70077;Laerm;57448;51.490;5.436;2023-12-20T10:14:02;52.34;50.01;60.33;;
70077;Laerm;57448;51.490;5.436;2023-12-20T10:16:27;52.25;49.35;63.86;;
70077;Laerm;57448;51.490;5.436;2023-12-20T10:18:53;51.49;49.21;57.19;;
70077;Laerm;57448;51.490;5.436;2023-12-20T10:21:19;51.76;49.59;57.91;;
70077;Laerm;57448;51.490;5.436;2023-12-20T10:23:45;51.76;48.88;60.03;;
70077;Laerm;57448;51.490;5.436;2023-12-20T10:26:10;51.99;49.12;55.96;;
70077;Laerm;57448;51.490;5.436;2023-12-20T10:28:44;51.71;49.04;57.60;;
70077;Laerm;57448;51.490;5.436;2023-12-20T10:31:09;51.97;49.50;55.76;;
70077;Laerm;57448;51.490;5.436;2023-12-20T10:33:34;51.71;49.34;55.19;;
70077;Laerm;57448;51.490;5.436;2023-12-20T10:36:00;52.63;49.79;58.29;;
70077;Laerm;57448;51.490;5.436;2023-12-20T10:38:25;52.79;50.01;61.57;;
70077;Laerm;57448;51.490;5.436;2023-12-20T10:40:54;52.55;50.07;57.16;;
70077;Laerm;57448;51.490;5.436;2023-12-20T10:43:22;54.68;49.99;63.90;;
70077;Laerm;57448;51.490;5.436;2023-12-20T10:45:47;51.84;48.96;62.15;;
70077;Laerm;57448;51.490;5.436;2023-12-20T10:48:13;51.30;48.96;55.51;;
70077;Laerm;57448;51.490;5.436;2023-12-20T10:50:38;51.22;48.30;55.03;;
70077;Laerm;57448;51.490;5.436;2023-12-20T10:53:05;51.65;49.27;53.99;;
70077;Laerm;57448;51.490;5.436;2023-12-20T10:55:31;52.34;49.91;65.39;;
70077;Laerm;57448;51.490;5.436;2023-12-20T10:58:00;54.48;48.46;66.84;;
70077;Laerm;57448;51.490;5.436;2023-12-20T11:00:26;52.00;49.71;54.86;;
70077;Laerm;57448;51.490;5.436;2023-12-20T11:02:51;53.46;50.13;68.95;;
70077;Laerm;57448;51.490;5.436;2023-12-20T11:05:36;52.23;49.77;57.72;;
70077;Laerm;57448;51.490;5.436;2023-12-20T11:08:06;52.26;49.72;57.03;;
70077;Laerm;57448;51.490;5.436;2023-12-20T11:10:37;51.69;49.38;61.25;;
70077;Laerm;57448;51.490;5.436;2023-12-20T11:13:22;56.04;49.96;67.65;;
70077;Laerm;57448;51.490;5.436;2023-12-20T11:15:48;55.34;49.78;70.64;;
70077;Laerm;57448;51.490;5.436;2023-12-20T11:18:14;52.16;48.54;62.53;;
70077;Laerm;57448;51.490;5.436;2023-12-20T11:20:40;52.03;49.12;68.97;;
70077;Laerm;57448;51.490;5.436;2023-12-20T11:23:06;51.40;49.18;60.94;;
70077;Laerm;57448;51.490;5.436;2023-12-20T11:28:13;51.72;49.42;56.11;;
70077;Laerm;57448;51.490;5.436;2023-12-20T11:33:08;51.52;48.31;54.60;;
70077;Laerm;57448;51.490;5.436;2023-12-20T11:35:33;51.74;49.44;55.07;;
70077;Laerm;57448;51.490;5.436;2023-12-20T11:38:00;54.50;49.39;66.65;;
70077;Laerm;57448;51.490;5.436;2023-12-20T11:40:25;51.56;49.00;56.98;;
70077;Laerm;57448;51.490;5.436;2023-12-20T11:42:51;51.40;48.13;57.01;;
70077;Laerm;57448;51.490;5.436;2023-12-20T11:45:21;51.01;47.93;55.31;;
70077;Laerm;57448;51.490;5.436;2023-12-20T11:47:49;51.86;49.30;59.24;;
70077;Laerm;57448;51.490;5.436;2023-12-20T11:50:18;55.22;48.66;67.79;;
70077;Laerm;57448;51.490;5.436;2023-12-20T11:52:44;51.46;48.72;55.87;;
70077;Laerm;57448;51.490;5.436;2023-12-20T11:55:09;55.04;48.76;70.42;;
70077;Laerm;57448;51.490;5.436;2023-12-20T11:57:35;50.60;48.21;56.69;;
70077;Laerm;57448;51.490;5.436;2023-12-20T12:00:01;50.92;48.18;56.81;;
70077;Laerm;57448;51.490;5.436;2023-12-20T12:02:26;50.34;48.26;53.11;;
70077;Laerm;57448;51.490;5.436;2023-12-20T12:04:51;50.19;46.95;56.36;;
70077;Laerm;57448;51.490;5.436;2023-12-20T12:07:17;51.04;47.37;59.01;;
70077;Laerm;57448;51.490;5.436;2023-12-20T12:09:42;49.48;47.54;53.50;;
70077;Laerm;57448;51.490;5.436;2023-12-20T12:12:08;49.60;47.62;58.44;;
70077;Laerm;57448;51.490;5.436;2023-12-20T12:14:33;49.38;47.32;60.94;;
70077;Laerm;57448;51.490;5.436;2023-12-20T12:17:01;49.89;47.81;53.13;;
70077;Laerm;57448;51.490;5.436;2023-12-20T12:19:27;50.14;47.87;52.61;;
70077;Laerm;57448;51.490;5.436;2023-12-20T12:24:37;50.22;47.56;52.90;;
70077;Laerm;57448;51.490;5.436;2023-12-20T12:27:03;50.64;48.14;53.56;;
70077;Laerm;57448;51.490;5.436;2023-12-20T12:29:28;50.59;48.06;53.89;;
70077;Laerm;57448;51.490;5.436;2023-12-20T12:31:54;51.00;48.91;55.34;;
70077;Laerm;57448;51.490;5.436;2023-12-20T12:34:19;50.73;47.97;53.76;;
70077;Laerm;57448;51.490;5.436;2023-12-20T12:36:45;50.57;48.02;58.78;;
70077;Laerm;57448;51.490;5.436;2023-12-20T12:39:13;52.76;48.73;69.90;;
70077;Laerm;57448;51.490;5.436;2023-12-20T12:41:42;53.06;49.47;71.73;;
70077;Laerm;57448;51.490;5.436;2023-12-20T12:44:07;52.59;49.29;63.00;;
70077;Laerm;57448;51.490;5.436;2023-12-20T12:46:33;51.29;48.19;57.22;;
70077;Laerm;57448;51.490;5.436;2023-12-20T12:48:58;54.88;48.15;67.18;;
70077;Laerm;57448;51.490;5.436;2023-12-20T12:51:23;51.59;47.86;61.62;;
70077;Laerm;57448;51.490;5.436;2023-12-20T12:53:49;55.49;48.59;69.45;;
70077;Laerm;57448;51.490;5.436;2023-12-20T12:56:15;50.58;47.75;54.41;;
70077;Laerm;57448;51.490;5.436;2023-12-20T12:58:40;50.73;48.26;54.06;;
70077;Laerm;57448;51.490;5.436;2023-12-20T13:01:06;50.88;47.98;53.87;;
70077;Laerm;57448;51.490;5.436;2023-12-20T13:03:31;53.98;48.70;66.05;;
70077;Laerm;57448;51.490;5.436;2023-12-20T13:05:56;52.33;47.87;65.93;;
70077;Laerm;57448;51.490;5.436;2023-12-20T13:08:22;53.24;48.14;66.17;;
70077;Laerm;57448;51.490;5.436;2023-12-20T13:10:47;50.65;47.79;54.18;;
70077;Laerm;57448;51.490;5.436;2023-12-20T13:13:13;50.77;48.61;53.70;;
70077;Laerm;57448;51.490;5.436;2023-12-20T13:15:38;51.55;49.06;56.77;;
70077;Laerm;57448;51.490;5.436;2023-12-20T13:18:03;50.71;48.56;55.73;;
70077;Laerm;57448;51.490;5.436;2023-12-20T13:20:30;50.96;48.86;54.65;;
70077;Laerm;57448;51.490;5.436;2023-12-20T13:22:56;56.69;49.34;68.85;;
70077;Laerm;57448;51.490;5.436;2023-12-20T13:25:21;51.68;49.44;56.72;;
70077;Laerm;57448;51.490;5.436;2023-12-20T13:27:46;55.67;50.09;70.25;;
70077;Laerm;57448;51.490;5.436;2023-12-20T13:30:12;52.03;49.19;55.62;;
70077;Laerm;57448;51.490;5.436;2023-12-20T13:32:37;52.28;49.85;56.70;;
70077;Laerm;57448;51.490;5.436;2023-12-20T13:35:03;52.04;49.27;59.19;;
70077;Laerm;57448;51.490;5.436;2023-12-20T13:37:29;55.16;49.82;66.00;;
70077;Laerm;57448;51.490;5.436;2023-12-20T13:39:54;52.47;49.68;65.51;;
70077;Laerm;57448;51.490;5.436;2023-12-20T13:42:20;54.15;49.81;65.07;;